createdAt,value
2022-12-23T00:01:01.502Z,4.64
2022-12-23T00:04:08.745Z,4.80
2022-12-23T00:07:15.423Z,4.83
2022-12-23T00:10:21.429Z,4.84
2022-12-23T00:13:43.000Z,4.84
2022-12-23T00:16:51.904Z,4.90
2022-12-23T00:19:58.587Z,4.94
2022-12-23T00:23:10.404Z,4.93
2022-12-23T00:26:20.470Z,5.07
2022-12-23T00:29:26.493Z,5.10
2022-12-23T00:32:35.830Z,5.15
2022-12-23T00:35:41.531Z,5.08
2022-12-23T00:39:01.023Z,5.15
2022-12-23T00:42:19.320Z,5.25
2022-12-23T00:45:26.097Z,5.20
2022-12-23T00:48:47.055Z,5.23
2022-12-23T00:51:53.621Z,5.17
2022-12-23T00:54:59.428Z,5.33
2022-12-23T00:58:06.206Z,5.35
2022-12-23T01:01:24.437Z,5.32
2022-12-23T01:04:45.954Z,5.32
2022-12-23T01:07:51.887Z,5.37
2022-12-23T01:10:58.799Z,5.40
2022-12-23T01:14:04.819Z,5.28
2022-12-23T01:17:11.993Z,5.32
2022-12-23T01:20:20.681Z,5.24
2022-12-23T01:23:27.270Z,5.17
2022-12-23T01:26:33.113Z,5.03
2022-12-23T01:29:39.843Z,4.84
2022-12-23T01:32:45.726Z,4.82
2022-12-23T01:35:54.923Z,4.84
2022-12-23T01:39:00.762Z,4.73
2022-12-23T01:42:21.910Z,4.75
2022-12-23T01:53:34.632Z,4.43
2022-12-23T02:00:47.550Z,4.37
2022-12-23T02:04:01.648Z,4.44
2022-12-23T02:07:23.422Z,4.64
2022-12-23T02:11:06.440Z,4.01
2022-12-23T02:14:48.698Z,4.36
2022-12-23T02:18:16.098Z,4.35
2022-12-23T02:22:08.223Z,4.41
2022-12-23T02:25:57.727Z,4.14
2022-12-23T02:29:46.653Z,4.44
2022-12-23T02:33:23.543Z,4.25
2022-12-23T02:36:48.248Z,4.41
2022-12-23T02:40:07.952Z,4.66
2022-12-23T02:43:29.943Z,4.56
2022-12-23T02:46:45.395Z,4.40
2022-12-23T02:50:05.648Z,4.37
2022-12-23T02:53:21.912Z,4.30
2022-12-23T02:56:35.350Z,4.20
2022-12-23T02:59:51.828Z,4.45
2022-12-23T03:02:59.475Z,4.06
2022-12-23T03:06:24.037Z,4.04
2022-12-23T03:09:49.924Z,4.15
2022-12-23T03:13:20.045Z,4.23
2022-12-23T03:16:34.913Z,4.58
2022-12-23T03:19:54.740Z,4.62
2022-12-23T03:23:18.859Z,4.59
2022-12-23T03:26:42.068Z,4.28
2022-12-23T03:30:04.044Z,4.66
2022-12-23T03:33:18.957Z,4.67
2022-12-23T03:36:34.763Z,4.60
2022-12-23T03:39:52.501Z,4.72
2022-12-23T03:43:07.720Z,4.88
2022-12-23T03:46:23.106Z,4.84
2022-12-23T03:49:38.897Z,4.72
2022-12-23T03:52:54.815Z,4.89
2022-12-23T03:56:13.367Z,5.19
2022-12-23T03:59:27.165Z,5.27
2022-12-23T04:02:55.324Z,4.91
2022-12-23T04:06:08.823Z,5.27
2022-12-23T04:09:22.232Z,5.20
2022-12-23T04:12:33.512Z,5.04
2022-12-23T04:15:44.892Z,4.92
2022-12-23T04:18:50.771Z,4.82
2022-12-23T04:21:59.968Z,4.69
2022-12-23T04:25:19.134Z,4.70
2022-12-23T04:28:28.286Z,4.71
2022-12-23T04:31:34.383Z,4.68
2022-12-23T04:34:40.919Z,4.76
2022-12-23T04:37:46.616Z,4.74
2022-12-23T04:40:53.282Z,4.82
2022-12-23T04:44:01.705Z,4.76
2022-12-23T04:47:11.243Z,4.73
2022-12-23T04:50:20.688Z,4.67
2022-12-23T04:53:27.258Z,4.52
2022-12-23T04:56:33.137Z,4.70
2022-12-23T04:59:42.417Z,4.47
2022-12-23T05:02:48.372Z,4.72
2022-12-23T05:05:55.061Z,4.79
2022-12-23T05:09:00.812Z,4.90
2022-12-23T05:12:10.824Z,5.01
2022-12-23T05:15:19.327Z,5.10
2022-12-23T05:18:27.772Z,5.17
2022-12-23T05:21:33.763Z,5.25
2022-12-23T05:24:40.332Z,5.18
2022-12-23T05:27:46.459Z,5.18
2022-12-23T05:31:02.053Z,5.15
2022-12-23T05:34:10.946Z,5.17
2022-12-23T05:37:17.589Z,5.14
2022-12-23T05:40:25.729Z,5.08
2022-12-23T05:43:38.491Z,5.13
2022-12-23T05:46:46.841Z,5.10
2022-12-23T05:49:53.365Z,5.00
2022-12-23T05:53:00.142Z,4.98
2022-12-23T05:56:09.021Z,5.01
2022-12-23T05:59:15.062Z,5.10
2022-12-23T06:02:24.966Z,5.16
2022-12-23T06:05:31.485Z,5.16
2022-12-23T06:08:38.307Z,5.05
2022-12-23T06:11:44.110Z,5.08
2022-12-23T06:14:53.179Z,5.05
2022-12-23T06:18:01.949Z,4.88
2022-12-23T06:21:11.501Z,4.82
2022-12-23T06:24:17.307Z,4.89
2022-12-23T06:27:24.103Z,4.87
2022-12-23T06:30:29.938Z,4.88
2022-12-23T06:33:39.237Z,4.87
2022-12-23T06:36:45.052Z,4.89
2022-12-23T06:39:51.674Z,4.85
2022-12-23T06:42:57.588Z,4.92
2022-12-23T06:46:04.274Z,5.09
2022-12-23T06:49:15.028Z,5.17
2022-12-23T06:52:23.163Z,5.17
2022-12-23T06:55:32.662Z,5.05
2022-12-23T06:58:40.629Z,5.07
2022-12-23T07:01:49.384Z,5.06
2022-12-23T07:04:58.631Z,5.10
2022-12-23T07:08:04.488Z,5.15
2022-12-23T07:11:11.411Z,5.30
2022-12-23T07:14:17.729Z,5.35
2022-12-23T07:17:24.387Z,5.35
2022-12-23T07:20:32.789Z,5.24
2022-12-23T07:23:39.558Z,5.26
2022-12-23T07:26:45.367Z,5.25
2022-12-23T07:29:52.067Z,5.21
2022-12-23T07:32:57.849Z,5.36
2022-12-23T07:36:07.826Z,5.46
2022-12-23T07:39:14.429Z,5.58
2022-12-23T07:42:50.937Z,5.72
2022-12-23T07:45:46.873Z,5.88
2022-12-23T07:48:53.508Z,5.94
2022-12-23T07:52:01.841Z,6.01
2022-12-23T07:55:10.097Z,6.07
2022-12-23T07:58:15.884Z,6.08
2022-12-23T08:01:24.186Z,5.97
2022-12-23T08:04:30.607Z,5.98
2022-12-23T08:07:40.187Z,5.97
2022-12-23T08:10:48.566Z,6.05
2022-12-23T08:13:55.814Z,6.00
2022-12-23T08:17:02.009Z,5.99
2022-12-23T08:20:10.990Z,6.04
2022-12-23T08:23:24.559Z,5.97
2022-12-23T08:26:31.606Z,6.10
2022-12-23T08:29:37.474Z,6.22
2022-12-23T08:32:44.096Z,6.14
2022-12-23T08:35:50.557Z,6.10
2022-12-23T08:39:02.995Z,6.14
2022-12-23T08:42:08.998Z,6.15
2022-12-23T08:45:17.245Z,6.04
2022-12-23T08:48:23.161Z,6.16
2022-12-23T08:51:31.286Z,6.19
2022-12-23T08:54:39.703Z,6.15
2022-12-23T08:57:46.242Z,6.20
2022-12-23T09:00:52.255Z,6.22
2022-12-23T09:03:59.605Z,6.25
2022-12-23T09:07:06.210Z,6.28
2022-12-23T09:10:15.423Z,6.28
2022-12-23T09:13:30.840Z,6.24
2022-12-23T09:16:42.250Z,6.37
2022-12-23T09:19:52.723Z,6.41
2022-12-23T09:22:59.867Z,6.42
2022-12-23T09:26:09.950Z,6.42
2022-12-23T09:29:16.666Z,6.54
2022-12-23T09:32:22.415Z,6.57
2022-12-23T09:35:29.157Z,6.45
2022-12-23T09:38:36.325Z,6.39
2022-12-23T09:42:09.257Z,6.35
2022-12-23T09:45:44.310Z,6.37
2022-12-23T09:49:05.662Z,6.62
2022-12-23T09:52:26.883Z,6.77
2022-12-23T09:55:49.175Z,7.00
2022-12-23T09:59:15.412Z,7.13
2022-12-23T10:02:48.299Z,7.28
2022-12-23T10:06:11.525Z,7.45
2022-12-23T10:09:21.780Z,7.69
2022-12-23T10:12:41.358Z,8.16
2022-12-23T10:15:55.463Z,8.39
2022-12-23T10:19:10.476Z,8.57
2022-12-23T10:22:27.453Z,8.79
2022-12-23T10:25:53.649Z,8.75
2022-12-23T10:29:19.222Z,8.77
2022-12-23T10:32:52.372Z,8.68
2022-12-23T10:36:15.753Z,8.44
2022-12-23T10:39:41.836Z,8.32
2022-12-23T10:43:06.340Z,8.07
2022-12-23T10:46:29.458Z,8.01
2022-12-23T10:50:04.711Z,7.86
2022-12-23T10:53:27.415Z,7.61
2022-12-23T10:56:35.772Z,7.55
2022-12-23T10:59:41.768Z,7.55
2022-12-23T11:03:15.394Z,7.60
2022-12-23T11:06:24.880Z,7.67
2022-12-23T11:09:42.764Z,7.60
2022-12-23T11:12:52.295Z,7.58
2022-12-23T11:16:19.948Z,7.50
2022-12-23T11:19:25.904Z,7.59
2022-12-23T11:34:54.996Z,7.39
2022-12-23T11:38:24.633Z,7.33
2022-12-23T11:41:38.173Z,7.37
2022-12-23T11:44:51.698Z,7.43
2022-12-23T11:47:59.285Z,7.39
2022-12-23T11:51:07.710Z,7.40
2022-12-23T11:54:23.561Z,7.44
2022-12-23T11:57:45.315Z,7.35
2022-12-23T12:00:59.460Z,7.30
2022-12-23T12:04:12.184Z,7.28
2022-12-23T12:07:22.127Z,7.27
2022-12-23T12:10:37.565Z,7.28
2022-12-23T12:13:48.189Z,7.32
2022-12-23T12:17:06.898Z,7.30
2022-12-23T12:20:29.294Z,7.22
2022-12-23T12:23:47.154Z,7.20
2022-12-23T12:27:04.934Z,7.23
2022-12-23T12:30:21.386Z,7.21
2022-12-23T12:33:38.852Z,7.08
2022-12-23T12:36:58.315Z,7.12
2022-12-23T12:40:11.258Z,7.12
2022-12-23T12:43:32.686Z,7.22
2022-12-23T12:46:49.029Z,7.26
2022-12-23T12:50:05.147Z,7.23
2022-12-23T12:53:21.878Z,7.21
2022-12-23T12:56:38.016Z,7.10
2022-12-23T12:59:52.156Z,7.08
2022-12-23T13:03:41.120Z,7.07
2022-12-23T13:07:10.585Z,7.06
2022-12-23T13:10:41.346Z,7.05
2022-12-23T13:14:05.108Z,6.92
2022-12-23T13:17:26.661Z,6.97
2022-12-23T13:20:45.292Z,7.08
2022-12-23T13:24:04.377Z,7.00
2022-12-23T13:27:19.660Z,7.01
2022-12-23T13:30:35.099Z,7.03
2022-12-23T13:34:01.196Z,7.00
2022-12-23T13:37:27.755Z,6.96
2022-12-23T13:40:47.563Z,6.86
2022-12-23T13:44:02.299Z,6.78
2022-12-23T13:47:26.367Z,6.68
2022-12-23T13:50:47.810Z,6.74
2022-12-23T13:54:14.865Z,6.74
2022-12-23T13:57:48.270Z,6.68
2022-12-23T14:01:22.249Z,6.68
2022-12-23T14:04:39.670Z,6.66
2022-12-23T14:07:48.480Z,6.68
2022-12-23T14:11:00.393Z,6.73
2022-12-23T14:14:17.885Z,6.70
2022-12-23T14:17:40.211Z,6.56
2022-12-23T14:20:58.863Z,6.73
2022-12-23T14:24:48.506Z,6.69
2022-12-23T14:28:16.373Z,6.66
2022-12-23T14:31:46.410Z,6.59
2022-12-23T14:35:23.148Z,6.62
2022-12-23T14:38:33.923Z,6.57
2022-12-23T14:41:52.777Z,6.43
2022-12-23T14:45:36.845Z,6.42
2022-12-23T14:49:38.195Z,6.44
2022-12-23T14:53:01.741Z,6.49
2022-12-23T14:56:26.478Z,6.55
2022-12-23T14:59:51.542Z,6.51
2022-12-23T15:03:03.659Z,6.52
2022-12-23T15:06:21.147Z,6.47
2022-12-23T15:09:31.760Z,6.35
2022-12-23T15:12:43.170Z,6.35
2022-12-23T15:16:02.005Z,6.30
2022-12-23T15:19:24.049Z,6.27
2022-12-23T15:22:35.487Z,6.18
2022-12-23T15:25:48.871Z,6.07
2022-12-23T15:28:54.754Z,6.04
2022-12-23T15:32:05.785Z,6.07
2022-12-23T15:35:26.372Z,6.02
2022-12-23T15:38:40.278Z,6.01
2022-12-23T15:41:49.445Z,6.04
2022-12-23T15:44:57.251Z,6.09
2022-12-23T15:48:08.584Z,6.13
2022-12-23T15:51:49.515Z,6.14
2022-12-23T15:55:03.911Z,6.08
2022-12-23T15:58:11.273Z,6.14
2022-12-23T16:01:22.220Z,6.18
2022-12-23T16:04:33.130Z,6.18
2022-12-23T16:07:44.462Z,6.19
2022-12-23T16:11:06.444Z,6.18
2022-12-23T16:14:40.539Z,6.23
2022-12-23T16:17:47.136Z,6.20
2022-12-23T16:21:00.660Z,6.17
2022-12-23T16:24:12.527Z,6.22
2022-12-23T16:27:22.070Z,6.19
2022-12-23T16:30:35.774Z,6.19
2022-12-23T16:33:47.685Z,6.26
2022-12-23T16:36:56.789Z,6.27
2022-12-23T16:40:05.946Z,6.22
2022-12-23T16:43:13.334Z,6.26
2022-12-23T16:46:23.074Z,6.29
2022-12-23T16:49:34.739Z,6.28
2022-12-23T16:52:43.654Z,6.27
2022-12-23T16:55:55.350Z,6.36
2022-12-23T16:59:04.857Z,6.26
2022-12-23T17:02:28.271Z,6.10
2022-12-23T17:05:34.228Z,6.18
2022-12-23T17:08:43.556Z,6.17
2022-12-23T17:11:53.884Z,6.19
2022-12-23T17:15:01.949Z,6.17
2022-12-23T17:18:15.939Z,6.20
2022-12-23T17:21:27.854Z,6.15
2022-12-23T17:24:36.143Z,6.18
2022-12-23T17:27:45.578Z,6.26
2022-12-23T17:30:58.071Z,6.31
2022-12-23T17:34:11.799Z,6.28
2022-12-23T17:37:19.761Z,6.26
2022-12-23T17:40:28.952Z,6.33
2022-12-23T17:43:34.655Z,6.41
2022-12-23T17:46:41.112Z,6.35
2022-12-23T17:49:48.944Z,6.44
2022-12-23T17:52:56.115Z,6.50
2022-12-23T17:56:04.317Z,6.50
2022-12-23T17:59:10.921Z,6.48
2022-12-23T18:02:32.948Z,6.35
2022-12-23T18:05:39.528Z,6.43
2022-12-23T18:08:45.435Z,6.47
2022-12-23T18:11:56.231Z,6.55
2022-12-23T18:15:02.347Z,6.55
2022-12-23T18:18:26.056Z,6.56
2022-12-23T18:21:35.689Z,6.58
2022-12-23T18:24:42.158Z,6.67
2022-12-23T18:27:52.529Z,6.72
2022-12-23T18:31:01.282Z,6.74
2022-12-23T18:34:07.105Z,6.80
2022-12-23T18:37:14.480Z,6.70
2022-12-23T18:40:32.432Z,6.64
2022-12-23T18:43:42.129Z,6.60
2022-12-23T18:46:50.994Z,6.57
2022-12-23T18:49:58.054Z,6.58
2022-12-23T18:53:04.994Z,6.61
2022-12-23T18:56:21.160Z,6.62
2022-12-23T18:59:31.791Z,6.63
2022-12-23T19:02:38.705Z,6.67
2022-12-23T19:05:44.329Z,6.66
2022-12-23T19:08:51.402Z,6.72
2022-12-23T19:11:58.125Z,6.77
2022-12-23T19:15:10.930Z,6.78
2022-12-23T19:18:18.793Z,6.75
2022-12-23T19:21:28.820Z,6.66
2022-12-23T19:24:36.532Z,6.66
2022-12-23T19:27:47.770Z,6.69
2022-12-23T19:30:56.871Z,6.71
2022-12-23T19:34:03.991Z,6.79
2022-12-23T19:37:14.401Z,6.86
2022-12-23T19:40:24.550Z,6.95
2022-12-23T19:43:30.445Z,7.03
2022-12-23T19:46:40.029Z,6.98
2022-12-23T19:49:51.924Z,6.95
2022-12-23T19:53:01.147Z,6.91
2022-12-23T19:56:11.146Z,6.83
2022-12-23T19:59:19.081Z,6.96
2022-12-23T20:02:28.450Z,6.98
2022-12-23T20:05:37.393Z,6.99
2022-12-23T20:08:44.067Z,7.08
2022-12-23T20:11:53.240Z,7.15
2022-12-23T20:14:59.681Z,7.16
2022-12-23T20:18:12.299Z,7.00
2022-12-23T20:21:20.168Z,7.13
2022-12-23T20:24:27.013Z,7.18
2022-12-23T20:27:33.910Z,6.94
2022-12-23T20:30:42.709Z,7.00
2022-12-23T20:33:53.895Z,6.92
2022-12-23T20:37:04.816Z,6.94
2022-12-23T20:40:17.776Z,6.79
2022-12-23T20:43:24.404Z,6.82
2022-12-23T20:46:30.402Z,6.89
2022-12-23T20:49:40.862Z,6.97
2022-12-23T20:52:47.225Z,7.00
2022-12-23T20:56:02.795Z,7.15
2022-12-23T20:59:08.485Z,7.20
2022-12-23T21:02:16.577Z,7.20
2022-12-23T21:05:25.063Z,7.18
2022-12-23T21:08:31.750Z,7.18
2022-12-23T21:11:41.536Z,7.15
2022-12-23T21:14:48.099Z,7.03
2022-12-23T21:17:53.971Z,7.07
2022-12-23T21:21:11.302Z,7.14
2022-12-23T21:24:20.952Z,7.10
2022-12-23T21:27:27.801Z,7.16
2022-12-23T21:30:37.806Z,7.15
2022-12-23T21:33:48.436Z,7.07
2022-12-23T21:36:56.694Z,7.04
2022-12-23T21:40:03.843Z,7.17
2022-12-23T21:43:09.499Z,7.10
2022-12-23T21:46:23.216Z,7.14
2022-12-23T21:49:28.812Z,7.17
2022-12-23T21:52:40.663Z,7.22
2022-12-23T21:55:46.708Z,7.23
2022-12-23T21:58:54.004Z,7.34
2022-12-23T22:02:01.477Z,7.25
2022-12-23T22:05:10.391Z,7.28
2022-12-23T22:08:22.846Z,7.36
2022-12-23T22:11:34.475Z,7.36
2022-12-23T22:14:40.662Z,7.23
2022-12-23T22:17:47.096Z,7.19
2022-12-23T22:20:53.185Z,7.14
2022-12-23T22:24:04.299Z,7.28
2022-12-23T22:27:10.397Z,7.27
2022-12-23T22:30:18.033Z,7.39
2022-12-23T22:33:25.217Z,7.41
2022-12-23T22:36:32.940Z,7.47
2022-12-23T22:39:44.138Z,7.37
2022-12-23T22:42:50.911Z,7.42
2022-12-23T22:45:59.881Z,7.47
2022-12-23T22:49:07.391Z,7.52
2022-12-23T22:52:13.279Z,7.53
2022-12-23T22:55:26.316Z,7.42
2022-12-23T22:58:34.633Z,7.41
2022-12-23T23:01:41.385Z,7.36
2022-12-23T23:04:50.569Z,7.30
2022-12-23T23:07:57.330Z,7.29
2022-12-23T23:11:08.809Z,7.33
2022-12-23T23:14:16.454Z,7.14
2022-12-23T23:17:22.766Z,7.10
2022-12-23T23:20:29.321Z,7.12
2022-12-23T23:23:35.156Z,7.25
2022-12-23T23:26:44.607Z,7.25
2022-12-23T23:29:50.401Z,7.23
2022-12-23T23:32:56.974Z,7.16
2022-12-23T23:36:03.208Z,7.07
2022-12-23T23:39:09.805Z,6.94
2022-12-23T23:42:18.286Z,6.78
2022-12-23T23:45:24.764Z,6.53
2022-12-23T23:48:33.299Z,6.41
2022-12-23T23:51:40.432Z,6.26
2022-12-23T23:54:46.475Z,6.14
2022-12-23T23:57:55.677Z,5.89
